Time,TemperatureF,DewpointF,PressureIn,WindDirection,WindDirectionDegrees,WindSpeedMPH,WindSpeedGustMPH,Humidity,HourlyPrecipIn,Conditions,Clouds,dailyrainin,SoftwareType,DateUTC
2013-03-04 00:10:00,26.9,20.0,29.72,West,259,2.0,4.0,75,0.00,,,0.00,weatherlink.com 1.10,2013-03-04 05:10:00,
2013-03-04 00:25:00,26.7,20.0,29.72,SW,234,1.0,3.0,75,0.00,,,0.00,weatherlink.com 1.10,2013-03-04 05:25:00,
2013-03-04 00:40:00,26.7,20.0,29.72,WNW,283,1.0,3.0,75,0.00,,,0.00,weatherlink.com 1.10,2013-03-04 05:40:00,
2013-03-04 00:55:00,26.6,21.0,29.72,West,276,0.0,1.0,78,0.00,,,0.00,weatherlink.com 1.10,2013-03-04 05:55:00,
2013-03-04 01:10:00,26.3,19.0,29.73,WSW,255,2.0,4.0,75,0.00,,,0.00,weatherlink.com 1.10,2013-03-04 06:10:00,
2013-03-04 01:25:00,26.1,20.0,29.73,WSW,241,0.0,2.0,76,0.00,,,0.00,weatherlink.com 1.10,2013-03-04 06:25:00,
2013-03-04 01:40:00,26.0,19.0,29.73,SW,234,0.0,1.0,74,0.00,,,0.00,weatherlink.com 1.10,2013-03-04 06:40:00,
2013-03-04 01:55:00,25.7,19.0,29.73,SW,225,0.0,1.0,75,0.00,,,0.00,weatherlink.com 1.10,2013-03-04 06:55:00,
2013-03-04 02:10:00,25.7,19.0,29.72,WNW,284,2.0,2.0,75,0.00,,,0.00,weatherlink.com 1.10,2013-03-04 07:10:00,
2013-03-04 02:25:00,25.7,19.0,29.72,SW,221,1.0,3.0,75,0.00,,,0.00,weatherlink.com 1.10,2013-03-04 07:25:00,
2013-03-04 02:40:00,25.5,19.0,29.73,West,260,0.0,1.0,76,0.00,,,0.00,weatherlink.com 1.10,2013-03-04 07:40:00,
2013-03-04 02:55:00,25.3,19.0,29.73,West,260,0.0,0.0,76,0.00,,,0.00,weatherlink.com 1.10,2013-03-04 07:55:00,
2013-03-04 03:10:00,25.2,19.0,29.73,West,260,0.0,0.0,77,0.00,,,0.00,weatherlink.com 1.10,2013-03-04 08:10:00,
2013-03-04 03:25:00,24.8,19.0,29.72,West,260,0.0,0.0,79,0.00,,,0.00,weatherlink.com 1.10,2013-03-04 08:25:00,
2013-03-04 03:40:00,24.2,19.0,29.73,NNE,25,0.0,0.0,81,0.00,,,0.00,weatherlink.com 1.10,2013-03-04 08:40:00,
2013-03-04 03:55:00,23.6,19.0,29.73,NNE,25,0.0,0.0,83,0.00,,,0.00,weatherlink.com 1.10,2013-03-04 08:55:00,
2013-03-04 04:10:00,23.5,19.0,29.73,NE,39,0.0,1.0,83,0.00,,,0.00,weatherlink.com 1.10,2013-03-04 09:10:00,
2013-03-04 04:25:00,23.5,19.0,29.73,ESE,108,2.0,2.0,82,0.00,,,0.00,weatherlink.com 1.10,2013-03-04 09:25:00,
2013-03-04 04:40:00,23.3,19.0,29.74,East,85,0.0,1.0,84,0.00,,,0.00,weatherlink.com 1.10,2013-03-04 09:40:00,
2013-03-04 04:55:00,23.7,19.0,29.73,ENE,63,0.0,0.0,83,0.00,,,0.00,weatherlink.com 1.10,2013-03-04 09:55:00,
2013-03-04 05:10:00,23.6,20.0,29.73,NE,56,0.0,1.0,84,0.00,,,0.00,weatherlink.com 1.10,2013-03-04 10:10:00,
2013-03-04 05:25:00,23.7,19.0,29.74,NE,46,0.0,1.0,83,0.00,,,0.00,weatherlink.com 1.10,2013-03-04 10:25:00,
2013-03-04 05:40:00,24.1,19.0,29.74,ESE,108,0.0,1.0,82,0.00,,,0.00,weatherlink.com 1.10,2013-03-04 10:40:00,
2013-03-04 05:55:00,24.4,19.0,29.74,NNE,30,0.0,1.0,79,0.00,,,0.00,weatherlink.com 1.10,2013-03-04 10:55:00,
2013-03-04 06:10:00,24.9,20.0,29.74,NW,315,0.0,3.0,80,0.00,,,0.00,weatherlink.com 1.10,2013-03-04 11:10:00,
2013-03-04 06:25:00,24.9,19.0,29.74,WNW,299,2.0,2.0,78,0.00,,,0.00,weatherlink.com 1.10,2013-03-04 11:25:00,
2013-03-04 06:40:00,25.5,19.0,29.75,North,352,0.0,3.0,75,0.00,,,0.00,weatherlink.com 1.10,2013-03-04 11:40:00,
2013-03-04 06:55:00,25.5,19.0,29.75,NE,53,1.0,1.0,75,0.00,,,0.00,weatherlink.com 1.10,2013-03-04 11:55:00,
2013-03-04 07:10:00,26.0,19.0,29.75,WNW,285,0.0,3.0,74,0.00,,,0.00,weatherlink.com 1.10,2013-03-04 12:10:00,
2013-03-04 07:25:00,26.4,19.0,29.75,SW,224,0.0,7.0,74,0.00,,,0.00,weatherlink.com 1.10,2013-03-04 12:25:00,
2013-03-04 07:40:00,26.7,19.0,29.75,NE,50,1.0,3.0,73,0.00,,,0.00,weatherlink.com 1.10,2013-03-04 12:40:00,
2013-03-04 07:55:00,26.9,19.0,29.76,NNE,23,1.0,3.0,73,0.00,,,0.00,weatherlink.com 1.10,2013-03-04 12:55:00,
2013-03-04 08:10:00,27.5,20.0,29.75,West,280,2.0,6.0,72,0.00,,,0.00,weatherlink.com 1.10,2013-03-04 13:10:00,
2013-03-04 08:25:00,27.9,19.0,29.75,WNW,293,1.0,4.0,70,0.00,,,0.00,weatherlink.com 1.10,2013-03-04 13:25:00,
2013-03-04 08:40:00,28.4,19.0,29.74,WNW,285,3.0,4.0,69,0.00,,,0.00,weatherlink.com 1.10,2013-03-04 13:40:00,
2013-03-04 08:56:00,29.1,19.0,29.74,WSW,254,0.0,3.0,67,0.00,,,0.00,weatherlink.com 1.10,2013-03-04 13:56:00,
2013-03-04 09:11:00,30.5,19.0,29.74,WNW,295,0.0,4.0,63,0.00,,,0.00,weatherlink.com 1.10,2013-03-04 14:11:00,
2013-03-04 09:26:00,31.3,19.0,29.74,WNW,292,4.0,6.0,61,0.00,,,0.00,weatherlink.com 1.10,2013-03-04 14:26:00,
2013-03-04 09:41:00,30.9,19.0,29.74,West,262,0.0,7.0,61,0.00,,,0.00,weatherlink.com 1.10,2013-03-04 14:41:00,
2013-03-04 09:56:00,32.1,20.0,29.74,NNE,31,0.0,7.0,62,0.00,,,0.00,weatherlink.com 1.10,2013-03-04 14:56:00,
2013-03-04 10:11:00,31.7,19.0,29.74,NW,317,2.0,6.0,60,0.00,,,0.00,weatherlink.com 1.10,2013-03-04 15:11:00,
2013-03-04 10:26:00,32.2,20.0,29.73,WSW,252,2.0,5.0,62,0.00,,,0.00,weatherlink.com 1.10,2013-03-04 15:26:00,
2013-03-04 10:41:00,33.1,20.0,29.74,ESE,111,3.0,5.0,59,0.00,,,0.00,weatherlink.com 1.10,2013-03-04 15:41:00,
2013-03-04 10:56:00,32.1,20.0,29.74,NE,49,3.0,8.0,62,0.00,,,0.00,weatherlink.com 1.10,2013-03-04 15:56:00,
2013-03-04 11:11:00,31.8,21.0,29.74,SE,126,3.0,6.0,65,0.01,,,0.01,weatherlink.com 1.10,2013-03-04 16:11:00,
2013-03-04 11:26:00,31.6,21.0,29.74,SSE,152,2.0,8.0,65,0.01,,,0.01,weatherlink.com 1.10,2013-03-04 16:26:00,
2013-03-04 11:56:00,32.0,21.0,29.74,ENE,73,4.0,6.0,64,0.01,,,0.01,weatherlink.com 1.10,2013-03-04 16:56:00,
2013-03-04 12:11:00,32.9,22.0,29.74,NNW,329,2.0,4.0,64,0.00,,,0.01,weatherlink.com 1.10,2013-03-04 17:11:00,
2013-03-04 12:26:00,33.2,21.0,29.73,NNE,33,3.0,6.0,62,0.01,,,0.02,weatherlink.com 1.10,2013-03-04 17:26:00,
2013-03-04 12:41:00,33.6,21.0,29.73,SE,131,0.0,5.0,61,0.01,,,0.02,weatherlink.com 1.10,2013-03-04 17:41:00,
2013-03-04 12:56:00,34.0,23.0,29.73,ENE,58,2.0,4.0,64,0.01,,,0.02,weatherlink.com 1.10,2013-03-04 17:56:00,
2013-03-04 13:11:00,33.7,22.0,29.73,East,99,2.0,6.0,63,0.01,,,0.02,weatherlink.com 1.10,2013-03-04 18:11:00,
2013-03-04 13:26:00,33.6,23.0,29.72,East,101,3.0,7.0,65,0.00,,,0.02,weatherlink.com 1.10,2013-03-04 18:26:00,
2013-03-04 13:41:00,33.5,22.0,29.72,ESE,111,2.0,8.0,63,0.00,,,0.02,weatherlink.com 1.10,2013-03-04 18:41:00,
2013-03-04 13:56:00,33.4,22.0,29.73,ENE,57,4.0,8.0,64,0.00,,,0.02,weatherlink.com 1.10,2013-03-04 18:56:00,
2013-03-04 14:11:00,33.5,22.0,29.73,SE,131,3.0,6.0,64,0.00,,,0.02,weatherlink.com 1.10,2013-03-04 19:11:00,
2013-03-04 14:26:00,33.5,22.0,29.73,SE,143,8.0,10.0,63,0.00,,,0.02,weatherlink.com 1.10,2013-03-04 19:26:00,
2013-03-04 14:41:00,33.1,23.0,29.74,East,84,1.0,8.0,67,0.00,,,0.02,weatherlink.com 1.10,2013-03-04 19:41:00,
2013-03-04 14:56:00,33.1,23.0,29.74,ENE,58,4.0,7.0,66,0.00,,,0.02,weatherlink.com 1.10,2013-03-04 19:56:00,
2013-03-04 15:11:00,32.1,23.0,29.75,NNE,16,2.0,10.0,70,0.00,,,0.02,weatherlink.com 1.10,2013-03-04 20:11:00,
2013-03-04 15:26:00,31.0,24.0,29.76,East,99,6.0,12.0,75,0.00,,,0.02,weatherlink.com 1.10,2013-03-04 20:26:00,
2013-03-04 15:41:00,30.6,24.0,29.76,ESE,102,4.0,8.0,76,0.00,,,0.02,weatherlink.com 1.10,2013-03-04 20:41:00,
2013-03-04 15:56:00,30.4,25.0,29.77,ENE,66,0.0,8.0,80,0.00,,,0.02,weatherlink.com 1.10,2013-03-04 20:56:00,
2013-03-04 16:11:00,29.1,25.0,29.78,ENE,72,3.0,6.0,85,0.00,,,0.02,weatherlink.com 1.10,2013-03-04 21:11:00,
2013-03-04 16:26:00,27.8,24.0,29.79,NE,47,2.0,10.0,86,0.00,,,0.02,weatherlink.com 1.10,2013-03-04 21:26:00,
2013-03-04 16:41:00,27.5,24.0,29.79,East,85,3.0,8.0,86,0.00,,,0.02,weatherlink.com 1.10,2013-03-04 21:41:00,
2013-03-04 16:56:00,27.3,24.0,29.80,NNE,27,4.0,11.0,86,0.00,,,0.02,weatherlink.com 1.10,2013-03-04 21:56:00,
2013-03-04 17:11:00,26.8,24.0,29.81,ENE,66,4.0,9.0,87,0.00,,,0.02,weatherlink.com 1.10,2013-03-04 22:11:00,
2013-03-04 17:26:00,26.6,24.0,29.82,NNE,30,1.0,6.0,88,0.00,,,0.02,weatherlink.com 1.10,2013-03-04 22:26:00,
2013-03-04 17:41:00,26.4,23.0,29.83,NNW,333,1.0,8.0,88,0.00,,,0.02,weatherlink.com 1.10,2013-03-04 22:41:00,
2013-03-04 17:56:00,26.4,23.0,29.84,ENE,77,1.0,4.0,88,0.00,,,0.02,weatherlink.com 1.10,2013-03-04 22:56:00,
2013-03-04 18:11:00,26.4,23.0,29.84,East,89,0.0,4.0,87,0.00,,,0.02,weatherlink.com 1.10,2013-03-04 23:11:00,
2013-03-04 18:27:00,26.5,23.0,29.86,NE,47,3.0,4.0,86,0.00,,,0.02,weatherlink.com 1.10,2013-03-04 23:27:00,
2013-03-04 18:42:00,26.6,23.0,29.86,NE,50,0.0,3.0,85,0.00,,,0.02,weatherlink.com 1.10,2013-03-04 23:42:00,
2013-03-04 18:57:00,26.6,23.0,29.86,WNW,290,0.0,1.0,85,0.00,,,0.02,weatherlink.com 1.10,2013-03-04 23:57:00,
2013-03-04 19:12:00,26.6,22.0,29.86,ENE,78,0.0,2.0,84,0.00,,,0.02,weatherlink.com 1.10,2013-03-05 00:12:00,
2013-03-04 19:27:00,26.6,22.0,29.87,ENE,67,0.0,1.0,84,0.00,,,0.02,weatherlink.com 1.10,2013-03-05 00:27:00,
2013-03-04 19:42:00,26.5,22.0,29.88,NNE,29,2.0,2.0,84,0.00,,,0.02,weatherlink.com 1.10,2013-03-05 00:42:00,
2013-03-04 19:57:00,26.4,23.0,29.88,ESE,103,0.0,3.0,85,0.00,,,0.02,weatherlink.com 1.10,2013-03-05 00:57:00,
2013-03-04 20:12:00,26.2,23.0,29.88,ESE,120,0.0,0.0,87,0.00,,,0.02,weatherlink.com 1.10,2013-03-05 01:12:00,
2013-03-04 20:27:00,26.0,22.0,29.88,ESE,120,0.0,0.0,86,0.00,,,0.02,weatherlink.com 1.10,2013-03-05 01:27:00,
2013-03-04 20:42:00,26.0,23.0,29.89,ESE,120,0.0,0.0,87,0.00,,,0.02,weatherlink.com 1.10,2013-03-05 01:42:00,
2013-03-04 20:57:00,25.9,22.0,29.89,ESE,120,0.0,0.0,86,0.00,,,0.02,weatherlink.com 1.10,2013-03-05 01:57:00,
2013-03-04 21:12:00,25.9,22.0,29.89,ESE,120,0.0,0.0,86,0.00,,,0.02,weatherlink.com 1.10,2013-03-05 02:12:00,
2013-03-04 21:27:00,25.9,23.0,29.89,ESE,120,0.0,0.0,87,0.00,,,0.02,weatherlink.com 1.10,2013-03-05 02:27:00,
2013-03-04 21:42:00,25.8,23.0,29.90,ESE,120,0.0,0.0,87,0.00,,,0.02,weatherlink.com 1.10,2013-03-05 02:42:00,
2013-03-04 21:57:00,25.6,23.0,29.90,ESE,120,0.0,0.0,88,0.00,,,0.02,weatherlink.com 1.10,2013-03-05 02:57:00,
2013-03-04 22:12:00,25.4,22.0,29.90,ESE,120,0.0,0.0,88,0.00,,,0.02,weatherlink.com 1.10,2013-03-05 03:12:00,
2013-03-04 22:27:00,25.1,22.0,29.90,ESE,120,0.0,0.0,89,0.00,,,0.02,weatherlink.com 1.10,2013-03-05 03:27:00,
2013-03-04 22:42:00,25.0,22.0,29.91,NE,56,0.0,1.0,89,0.00,,,0.02,weatherlink.com 1.10,2013-03-05 03:42:00,
2013-03-04 22:57:00,25.0,22.0,29.91,NNE,27,0.0,0.0,89,0.00,,,0.02,weatherlink.com 1.10,2013-03-05 03:57:00,
2013-03-04 23:12:00,24.5,22.0,29.91,NNE,27,0.0,0.0,90,0.00,,,0.02,weatherlink.com 1.10,2013-03-05 04:12:00,
2013-03-04 23:27:00,24.7,22.0,29.92,NNE,27,0.0,0.0,90,0.00,,,0.02,weatherlink.com 1.10,2013-03-05 04:27:00,
2013-03-04 23:42:00,25.2,23.0,29.91,WNW,286,0.0,1.0,90,0.00,,,0.02,weatherlink.com 1.10,2013-03-05 04:42:00,
2013-03-04 23:57:00,25.3,23.0,29.91,WNW,286,0.0,0.0,89,0.00,,,0.02,weatherlink.com 1.10,2013-03-05 04:57:00,